Startpagina
METAR-TAF:

METAR-TAF

Vliegvelden :

Vientiane, Laos

breedte: 17-57N, lengte: 102-34E, hoogte: 171 m

Actueel weer

Dit bericht is 42 minuten geleden gemaakt, om 00:00 UTC
Wind 2 kt uit het westnoordwesten
Temperatuur 26°C
Vochtigheid 94%
Druk 1002 hPa
Zicht 10 km of meer
Verspreide wolken op 4000 ft
Verspreide wolken op 20000 ft

METAR: VLVT 250000Z 30002KT 9999 SCT040 SCT200 26/25 Q1002 NOSIG

Tijdstip: 07:42 (00:42 UTC)

Verwachting

Dit bericht is 1 uur en het 42 minuten geleden gemaakt, om 23:00 UTC
Verwachting geldig van 25 om 00 UTC tot 25 om 24 UTC
Wind 4 kt uit het zuidwesten
Zicht 10 km of meer
Verspreide wolken op 1600 ft
Verspreide wolken op 4000 ft
Tijdelijke
van 25 om 14 UTC tot 25 om 20 UTC
Zicht: 4000 m
Gebroken wolken op 4000 ft
nevel

TAF: VLVT 242300Z 2500/2524 22004KT 9999 SCT016 SCT040 TEMPO 2514/2520 4000 BR BKN040

Waarnemingen en weersverwachtingen van meer dan 4000 vliegvelden (METAR en TAF).

De beschikbare stations zijn de gele en rode punten op de kaart.

Ga met uw muis naar het station om de naam te zien.

Klik dan om waarnemingen en weersverwachtingen te zien.

kaart wijzigen: klik op de groene knoppen met een zwart kruis om in te zoomen, op de groene knop met een streepje om uit te zoomen of op de groene pijlen voor aangrenzende kaarten.


METAR-TAF: